Time;durP1;ratioP1;P1;durP2;ratioP2;P2;SDS_P1;SDS_P2;PMS_P1;PMS_P2;Temp;Humidity;BMP_temperature;BMP_pressure;BME280_temperature;BME280_humidity;BME280_pressure;Samples;Min_cycle;Max_cycle;Signal;HPM_P1;HPM_P2
2022/07/08 00:01:59;;;;;;;2.20;1.10;;;;;;;15.24;60.44;99919.50;5091938;28;42267;-75
2022/07/08 00:04:27;;;;;;;3.30;0.93;;;;;;;15.26;60.25;99921.13;5091789;28;40023;-75
2022/07/08 00:06:55;;;;;;;2.70;0.80;;;;;;;15.33;59.65;99932.28;5092082;28;42415;-75
2022/07/08 00:09:22;;;;;;;2.37;0.97;;;;;;;15.34;59.71;99926.81;5093087;28;43591;-74
2022/07/08 00:11:51;;;;;;;2.30;1.00;;;;;;;15.42;59.68;99935.19;5090751;28;41348;-74
2022/07/08 00:14:20;;;;;;;0.60;0.60;;;;;;;15.44;59.70;99943.97;5093016;28;41188;-75
2022/07/08 00:16:48;;;;;;;2.03;0.97;;;;;;;15.43;59.53;99946.72;5125738;27;42394;-74
2022/07/08 00:19:18;;;;;;;2.53;1.20;;;;;;;15.45;59.55;99944.81;5091629;28;43666;-74
2022/07/08 00:21:49;;;;;;;1.83;0.90;;;;;;;15.41;59.24;99944.16;5092510;28;42025;-74
2022/07/08 00:24:18;;;;;;;1.93;0.73;;;;;;;15.50;59.20;99941.84;5088799;28;40042;-75
2022/07/08 00:26:45;;;;;;;1.77;0.80;;;;;;;15.54;59.05;99948.69;5091462;28;42745;-74
2022/07/08 00:29:13;;;;;;;1.40;0.90;;;;;;;15.51;59.43;99954.22;5091313;28;42872;-74
2022/07/08 00:31:42;;;;;;;3.93;0.90;;;;;;;15.49;59.43;99964.16;5090971;28;42253;-75
2022/07/08 00:34:10;;;;;;;0.80;0.80;;;;;;;15.46;59.23;99963.38;5074461;28;41259;-76
2022/07/08 00:36:37;;;;;;;3.33;0.90;;;;;;;15.48;59.53;99959.75;5090931;28;40974;-75
2022/07/08 00:39:05;;;;;;;0.83;0.77;;;;;;;15.48;59.25;99959.75;5091259;28;41888;-74
2022/07/08 00:41:33;;;;;;;1.27;0.90;;;;;;;15.50;59.36;99957.84;5074297;28;42391;-75
2022/07/08 00:44:01;;;;;;;2.07;0.80;;;;;;;15.47;59.34;99958.91;5091103;28;41637;-73
2022/07/08 00:46:28;;;;;;;2.53;1.00;;;;;;;15.45;59.44;99953.66;5091198;28;41767;-75
2022/07/08 00:48:57;;;;;;;1.87;1.10;;;;;;;15.43;59.99;99958.28;5092493;28;42984;-74
2022/07/08 00:51:25;;;;;;;3.47;1.30;;;;;;;15.43;60.15;99958.28;5089765;28;43281;-74
2022/07/08 00:53:54;;;;;;;1.67;1.33;;;;;;;15.41;60.19;99960.19;5074121;28;39421;-74
2022/07/08 00:56:23;;;;;;;2.00;1.00;;;;;;;15.39;60.85;99955.88;5090904;28;41816;-74
2022/07/08 00:58:51;;;;;;;1.47;0.70;;;;;;;15.36;60.70;99956.94;5090932;28;44325;-75
2022/07/08 01:01:19;;;;;;;0.93;0.80;;;;;;;15.32;60.65;99958.09;5073912;28;42502;-74
2022/07/08 01:03:46;;;;;;;1.47;0.90;;;;;;;15.27;60.37;99962.00;5091051;28;40987;-76
2022/07/08 01:06:15;;;;;;;3.43;1.10;;;;;;;15.20;61.33;99958.91;5091980;28;42674;-74
2022/07/08 01:08:43;;;;;;;3.00;0.90;;;;;;;15.17;60.83;99961.75;5090746;28;44330;-75
2022/07/08 01:11:13;;;;;;;3.20;1.10;;;;;;;15.13;61.12;99960.22;5090228;28;44018;-74
2022/07/08 01:13:41;;;;;;;1.00;0.70;;;;;;;15.08;61.67;99962.34;5090802;28;39049;-74
2022/07/08 01:16:08;;;;;;;2.47;1.10;;;;;;;15.07;61.79;99966.81;5091822;28;41650;-74
2022/07/08 01:18:36;;;;;;;2.97;1.17;;;;;;;15.05;62.10;99965.19;5092009;28;43677;-73
2022/07/08 01:21:06;;;;;;;1.90;1.23;;;;;;;15.03;61.89;99959.94;5090606;28;42904;-74
2022/07/08 01:23:34;;;;;;;3.67;1.07;;;;;;;15.02;62.30;99968.91;5090737;28;40694;-75
2022/07/08 01:26:07;;;;;;;4.67;1.33;;;;;;;15.01;62.22;99967.19;5090153;28;40681;-74
2022/07/08 01:28:35;;;;;;;4.10;1.10;;;;;;;15.04;61.87;99966.16;5088734;28;42699;-75
2022/07/08 01:31:03;;;;;;;1.57;1.00;;;;;;;15.06;61.97;99964.25;5090482;28;43718;-74
2022/07/08 01:33:30;;;;;;;2.20;1.17;;;;;;;15.09;62.18;99954.22;5073499;28;38709;-76
2022/07/08 01:35:58;;;;;;;2.33;1.10;;;;;;;15.15;61.75;99963.66;5090519;28;41583;-74
2022/07/08 01:38:27;;;;;;;1.53;0.90;;;;;;;15.22;61.56;99964.97;5091886;28;42726;-75
2022/07/08 01:40:55;;;;;;;2.17;1.10;;;;;;;15.31;61.53;99969.75;5073192;28;43758;-74
2022/07/08 01:43:22;;;;;;;2.77;1.00;;;;;;;15.37;60.86;99974.66;5090414;28;41428;-74
2022/07/08 01:45:50;;;;;;;2.50;1.10;;;;;;;15.44;60.78;99975.16;5073140;28;43110;-74
2022/07/08 01:48:18;;;;;;;4.20;1.40;;;;;;;15.48;60.34;99975.78;5091528;28;43609;-74
2022/07/08 01:55:14;;;;;;;2.50;0.90;;;;;;;15.49;60.12;99973.00;5091763;28;41356;-74
2022/07/08 01:57:41;;;;;;;2.10;1.00;;;;;;;15.49;60.33;99969.47;5089957;28;41077;-75
2022/07/08 02:00:10;;;;;;;2.40;1.10;;;;;;;15.50;60.23;99976.53;5091244;28;42506;-75
2022/07/08 02:02:40;;;;;;;1.67;0.73;;;;;;;15.48;59.96;99970.44;5089274;28;42103;-74
2022/07/08 02:05:09;;;;;;;2.20;1.10;;;;;;;15.49;60.04;99969.47;5095036;28;39913;-75
2022/07/08 02:07:37;;;;;;;3.27;1.20;;;;;;;15.51;60.34;99981.78;5095011;28;41679;-75
2022/07/08 02:10:06;;;;;;;2.53;0.90;;;;;;;15.53;60.08;99976.34;5094678;28;43524;-74
2022/07/08 02:12:34;;;;;;;3.40;1.30;;;;;;;15.55;60.01;99980.69;5093283;28;42332;-75
2022/07/08 02:15:05;;;;;;;2.47;0.90;;;;;;;15.57;59.93;99972.56;5093446;28;40032;-74
2022/07/08 02:17:34;;;;;;;2.93;0.90;;;;;;;15.59;59.91;99974.16;5093039;28;43225;-74
2022/07/08 02:20:03;;;;;;;1.77;0.87;;;;;;;15.61;59.85;99972.25;5094298;28;43333;-74
2022/07/08 02:22:31;;;;;;;3.57;0.73;;;;;;;15.65;59.56;99975.59;5093379;28;42426;-74
2022/07/08 02:24:59;;;;;;;3.00;0.97;;;;;;;15.67;59.66;99971.88;5094728;28;40707;-74
2022/07/08 02:27:27;;;;;;;1.00;0.87;;;;;;;15.70;59.64;99973.47;5076570;28;40913;-74
2022/07/08 02:29:56;;;;;;;2.53;0.87;;;;;;;15.73;59.97;99970.59;5076303;28;42010;-75
2022/07/08 02:32:24;;;;;;;2.90;1.00;;;;;;;15.75;59.87;99974.00;5076296;28;41940;-74
2022/07/08 02:34:52;;;;;;;2.33;1.00;;;;;;;15.78;59.72;99973.81;5092967;28;39898;-74
2022/07/08 02:37:20;;;;;;;1.60;1.10;;;;;;;15.80;59.67;99979.94;5093364;28;41901;-73
2022/07/08 02:39:48;;;;;;;3.47;1.10;;;;;;;15.83;59.51;99985.03;5093063;28;41617;-76
2022/07/08 02:42:16;;;;;;;4.60;0.97;;;;;;;15.85;59.64;99991.13;5075954;28;41145;-75
2022/07/08 02:44:43;;;;;;;1.43;0.80;;;;;;;15.88;59.31;99990.94;5093036;28;41065;-74
2022/07/08 02:47:12;;;;;;;1.27;1.00;;;;;;;15.90;59.17;99994.38;5094337;28;41643;-74
2022/07/08 02:49:40;;;;;;;1.80;0.80;;;;;;;15.92;59.54;99981.78;5075704;28;41764;-75
2022/07/08 02:52:08;;;;;;;2.07;0.97;;;;;;;15.94;59.60;99990.56;5094201;28;43290;-75
2022/07/08 02:54:36;;;;;;;2.87;1.00;;;;;;;15.96;59.45;99985.09;5127056;27;40948;-74
2022/07/08 02:57:05;;;;;;;2.40;0.80;;;;;;;15.97;59.60;99984.13;5094234;28;42358;-74
2022/07/08 02:59:33;;;;;;;2.00;1.10;;;;;;;15.97;59.55;99984.97;5093896;28;43803;-74
2022/07/08 03:02:01;;;;;;;1.47;0.90;;;;;;;15.67;59.30;99933.63;5094180;28;42256;-74
2022/07/08 03:04:30;;;;;;;2.03;0.90;;;;;;;15.97;59.45;99990.31;5075780;28;39313;-75
2022/07/08 03:06:58;;;;;;;3.47;1.40;;;;;;;15.98;58.91;99997.38;5093754;28;42470;-75
2022/07/08 03:09:25;;;;;;;1.97;0.90;;;;;;;15.99;58.96;99987.56;5092544;28;44006;-75
2022/07/08 03:11:53;;;;;;;2.73;0.93;;;;;;;16.00;58.80;99990.13;5092076;28;42712;-74
2022/07/08 03:14:21;;;;;;;1.90;0.90;;;;;;;16.02;58.94;99988.22;5091785;28;40949;-75
2022/07/08 03:16:49;;;;;;;1.70;0.90;;;;;;;15.93;58.80;99983.50;5075770;28;40634;-74
2022/07/08 03:19:17;;;;;;;1.57;0.80;;;;;;;16.03;58.72;100000.63;5092637;28;41932;-75
2022/07/08 03:21:46;;;;;;;2.73;1.20;;;;;;;16.04;58.80;99997.00;5092417;28;43118;-75
2022/07/08 03:24:14;;;;;;;1.83;1.00;;;;;;;16.05;58.71;99990.69;5092807;28;40260;-75
2022/07/08 03:26:42;;;;;;;1.23;1.00;;;;;;;16.07;58.56;99994.09;5092227;28;42527;-74
2022/07/08 03:29:09;;;;;;;3.93;1.00;;;;;;;16.09;58.39;100000.19;5092508;28;42844;-75
2022/07/08 03:31:37;;;;;;;3.63;1.10;;;;;;;16.08;58.45;100002.97;5093039;28;42159;-74
2022/07/08 03:34:05;;;;;;;1.77;1.07;;;;;;;16.08;58.58;100002.97;5092396;28;40908;-75
2022/07/08 03:36:33;;;;;;;2.47;0.80;;;;;;;16.02;58.70;99993.56;5075187;28;41948;-74
2022/07/08 03:39:03;;;;;;;2.57;1.10;;;;;;;16.02;58.50;99992.69;5092135;28;42706;-74
2022/07/08 03:41:29;;;;;;;1.07;0.70;;;;;;;16.13;58.88;100015.06;5092019;28;43038;-75
2022/07/08 03:43:57;;;;;;;2.47;0.63;;;;;;;16.14;58.92;100016.78;5092300;28;39858;-76
2022/07/08 03:46:24;;;;;;;2.47;1.10;;;;;;;16.15;58.87;100020.31;5093306;28;42811;-74
2022/07/08 03:48:52;;;;;;;3.53;1.30;;;;;;;16.18;58.85;100020.13;5075118;28;41917;-74
2022/07/08 03:51:22;;;;;;;1.00;0.90;;;;;;;16.20;58.97;100017.31;5091584;28;44050;-75
2022/07/08 03:53:50;;;;;;;2.90;1.10;;;;;;;16.22;58.78;100020.75;5093162;28;40130;-75
2022/07/08 03:56:20;;;;;;;0.90;0.83;;;;;;;16.20;58.73;100009.31;5074627;28;40983;-74
2022/07/08 03:58:48;;;;;;;2.37;1.20;;;;;;;16.26;58.91;100017.78;5093046;28;42667;-74
2022/07/08 04:01:16;;;;;;;2.17;0.93;;;;;;;16.30;58.81;100011.28;5091457;28;41558;-75
2022/07/08 04:03:44;;;;;;;2.80;0.90;;;;;;;16.37;58.62;100014.38;5092056;28;39953;-74
2022/07/08 04:06:12;;;;;;;1.90;1.20;;;;;;;16.41;58.50;100029.25;5074578;28;40993;-74
2022/07/08 04:08:39;;;;;;;1.70;1.10;;;;;;;16.42;58.56;100022.97;5074736;28;42464;-74
2022/07/08 04:11:07;;;;;;;2.13;1.03;;;;;;;16.45;58.38;100022.72;5090907;28;43769;-74
2022/07/08 04:13:37;;;;;;;1.50;0.90;;;;;;;16.43;58.53;100024.69;5091969;28;38816;-75
2022/07/08 04:16:08;;;;;;;2.00;1.00;;;;;;;16.54;58.62;100032.81;5092737;28;41818;-76
2022/07/08 04:18:35;;;;;;;1.63;0.87;;;;;;;16.60;58.10;100037.72;5089846;28;42831;-74
2022/07/08 04:21:03;;;;;;;1.47;1.00;;;;;;;16.71;58.10;100043.22;5092423;28;43549;-75
2022/07/08 04:23:31;;;;;;;0.70;0.70;;;;;;;16.83;58.11;100045.06;5092854;28;41855;-75
2022/07/08 04:25:59;;;;;;;1.87;0.97;;;;;;;16.85;58.32;100035.13;5091171;28;41548;-74
2022/07/08 04:28:27;;;;;;;1.63;1.00;;;;;;;16.98;58.35;100047.63;5091581;28;44510;-75
2022/07/08 04:30:57;;;;;;;4.20;1.57;;;;;;;17.03;57.71;100056.22;5092430;28;42897;-75
2022/07/08 04:33:25;;;;;;;3.43;0.90;;;;;;;17.04;57.82;100049.91;5074630;28;41961;-79
2022/07/08 04:35:52;;;;;;;1.97;1.00;;;;;;;17.12;57.58;100047.53;5090918;28;41889;-75
2022/07/08 04:38:20;;;;;;;3.53;1.00;;;;;;;17.21;57.18;100052.22;5092648;28;42677;-74
2022/07/08 04:40:48;;;;;;;2.97;1.33;;;;;;;17.29;57.32;100057.06;5091186;28;43267;-74
2022/07/08 04:43:16;;;;;;;3.10;1.00;;;;;;;17.35;56.67;100057.47;5092597;28;39850;-74
2022/07/08 04:45:44;;;;;;;2.30;1.20;;;;;;;17.38;56.39;100056.41;5091970;28;41981;-74
2022/07/08 04:48:13;;;;;;;1.00;0.90;;;;;;;17.29;56.07;100065.94;5091018;28;43705;-74
2022/07/08 04:50:40;;;;;;;2.80;0.97;;;;;;;17.18;56.43;100069.34;5090679;28;41295;-76
2022/07/08 04:53:08;;;;;;;3.60;1.13;;;;;;;17.06;56.68;100078.25;5092577;28;40987;-76
2022/07/08 04:55:36;;;;;;;3.27;1.10;;;;;;;16.99;56.48;100076.13;5073940;28;41006;-75
2022/07/08 04:58:05;;;;;;;2.70;0.80;;;;;;;16.95;56.62;100085.31;5091171;28;43903;-74
2022/07/08 05:00:34;;;;;;;1.43;0.80;;;;;;;16.97;56.79;100078.03;5092090;28;42113;-75
2022/07/08 05:03:03;;;;;;;4.40;1.10;;;;;;;17.01;56.55;100084.91;5074189;28;40012;-75
2022/07/08 05:05:33;;;;;;;1.03;0.80;;;;;;;17.10;56.39;100082.44;5090778;28;41773;-76
2022/07/08 05:08:02;;;;;;;1.80;1.00;;;;;;;17.17;56.54;100080.19;5091162;28;42488;-74
2022/07/08 05:10:30;;;;;;;3.10;1.30;;;;;;;17.33;56.06;100075.44;5090500;28;42428;-75
2022/07/08 05:12:58;;;;;;;2.50;1.40;;;;;;;17.38;55.87;100077.81;5091056;28;41843;-74
2022/07/08 05:15:27;;;;;;;2.83;1.50;;;;;;;17.55;55.56;100097.09;5073847;28;41986;-75
2022/07/08 05:17:55;;;;;;;2.67;1.20;;;;;;;17.54;54.96;100083.81;5092033;28;42786;-74
2022/07/08 05:20:23;;;;;;;2.23;0.93;;;;;;;17.75;54.86;100103.72;5090376;28;41143;-75
2022/07/08 05:22:53;;;;;;;2.23;1.23;;;;;;;17.95;54.70;100104.94;5090962;28;39966;-75
2022/07/08 05:25:20;;;;;;;1.10;0.80;;;;;;;18.08;54.39;100105.75;5091931;28;41814;-75
2022/07/08 05:27:48;;;;;;;2.83;1.57;;;;;;;18.24;53.60;100114.38;5073520;28;43110;-74
2022/07/08 05:30:16;;;;;;;2.53;0.80;;;;;;;18.42;53.29;100120.19;5090278;28;41039;-75
2022/07/08 05:32:45;;;;;;;4.87;1.07;;;;;;;18.45;51.90;100129.84;5091886;28;39969;-74
2022/07/08 05:35:13;;;;;;;3.13;1.10;;;;;;;18.47;52.57;100123.41;5090057;28;42465;-74
2022/07/08 05:37:41;;;;;;;3.83;1.07;;;;;;;18.48;52.11;100129.63;5089749;28;43138;-74
2022/07/08 05:40:11;;;;;;;5.37;1.60;;;;;;;18.51;52.02;100135.63;5090158;28;42310;-74
2022/07/08 05:42:40;;;;;;;3.20;1.23;;;;;;;18.56;52.05;100143.31;5073556;28;39188;-75
2022/07/08 05:45:09;;;;;;;1.07;0.80;;;;;;;18.48;51.66;100130.47;5089912;28;40687;-75
2022/07/08 05:47:37;;;;;;;1.60;0.97;;;;;;;18.60;51.46;100143.00;5090393;28;42825;-74
2022/07/08 05:50:06;;;;;;;2.00;1.23;;;;;;;18.74;51.28;100147.34;5090207;28;42412;-75
2022/07/08 05:52:34;;;;;;;1.97;1.00;;;;;;;18.84;51.31;100153.72;5091621;28;40910;-74
2022/07/08 05:55:02;;;;;;;3.73;0.90;;;;;;;18.88;50.84;100151.66;5090216;28;41604;-77
2022/07/08 05:57:31;;;;;;;3.30;1.20;;;;;;;18.97;50.69;100159.84;5090202;28;43483;-75
2022/07/08 05:59:59;;;;;;;3.80;0.97;;;;;;;18.99;50.99;100160.59;5091244;28;42302;-74
2022/07/08 06:02:27;;;;;;;1.77;0.80;;;;;;;19.05;50.60;100166.47;5091379;28;40847;-75
2022/07/08 06:04:55;;;;;;;1.80;1.03;;;;;;;19.18;50.66;100168.09;5089734;28;41160;-76
2022/07/08 06:07:23;;;;;;;0.93;0.70;;;;;;;19.27;50.30;100167.41;5073090;28;43439;-75
2022/07/08 06:09:50;;;;;;;2.43;1.30;;;;;;;19.29;50.23;100170.78;5091084;28;42499;-76
2022/07/08 06:12:19;;;;;;;2.93;1.10;;;;;;;19.35;49.99;100173.03;5089547;28;39109;-75
2022/07/08 06:14:48;;;;;;;3.67;1.00;;;;;;;19.53;49.24;100178.84;5089623;28;40416;-75
2022/07/08 06:17:16;;;;;;;4.70;1.00;;;;;;;19.77;48.79;100180.56;5089778;28;42847;-76
2022/07/08 06:19:44;;;;;;;2.90;0.80;;;;;;;19.93;48.05;100198.00;5086229;28;43447;-75
2022/07/08 06:22:11;;;;;;;2.80;1.33;;;;;;;20.19;47.77;100192.38;5091164;28;39991;-75
2022/07/08 06:24:40;;;;;;;3.23;1.10;;;;;;;20.31;47.70;100192.22;5072387;28;41827;-77
2022/07/08 06:27:08;;;;;;;1.23;0.70;;;;;;;20.35;47.06;100193.72;5089909;28;43330;-77
2022/07/08 06:29:36;;;;;;;2.67;0.83;;;;;;;20.40;47.03;100196.88;5071925;28;41345;-78
2022/07/08 06:32:05;;;;;;;2.07;1.00;;;;;;;20.48;46.97;100198.97;5090873;28;40695;-78
2022/07/08 06:34:33;;;;;;;2.17;0.90;;;;;;;20.59;46.72;100206.16;5088817;28;41777;-77
2022/07/08 06:37:02;;;;;;;1.80;1.07;;;;;;;20.57;46.31;100191.97;5089901;28;42737;-77
2022/07/08 06:39:29;;;;;;;2.27;0.90;;;;;;;20.80;46.63;100201.66;5089147;28;42316;-79
2022/07/08 06:41:57;;;;;;;1.47;0.80;;;;;;;20.92;46.08;100207.88;5088723;28;39975;-78
2022/07/08 06:44:26;;;;;;;2.63;0.80;;;;;;;21.03;46.15;100203.28;5072477;28;41556;-76
2022/07/08 06:46:54;;;;;;;3.00;1.03;;;;;;;21.03;46.34;100184.44;5072884;28;42258;-78
2022/07/08 06:49:23;;;;;;;2.67;1.17;;;;;;;21.08;45.05;100203.75;5089768;28;42364;-77
2022/07/08 06:51:51;;;;;;;1.63;0.87;;;;;;;21.12;45.09;100199.84;5076276;28;41006;-77
2022/07/08 06:54:37;;;;;;;3.80;1.13;;;;;;;21.26;45.13;100206.78;5076175;28;42303;-80
2022/07/08 06:57:07;;;;;;;4.80;1.10;;;;;;;21.42;44.65;100217.94;5073872;28;43540;-78
2022/07/08 06:59:35;;;;;;;2.07;0.90;;;;;;;21.53;44.29;100219.69;5092742;28;42036;-79
2022/07/08 07:02:03;;;;;;;2.67;1.10;;;;;;;21.52;43.74;100215.28;5075979;28;41522;-75
2022/07/08 07:04:33;;;;;;;2.30;0.90;;;;;;;21.59;43.88;100219.19;5092088;28;41331;-75
2022/07/08 07:07:01;;;;;;;3.10;1.00;;;;;;;21.56;43.64;100214.06;5091756;28;42163;-79
2022/07/08 07:09:28;;;;;;;3.40;0.80;;;;;;;21.73;44.12;100232.31;5092552;28;41203;-81
2022/07/08 07:11:56;;;;;;;1.83;0.80;;;;;;;21.75;43.66;100214.19;5092700;28;39449;-76
2022/07/08 07:14:24;;;;;;;2.43;0.93;;;;;;;21.80;43.43;100233.50;5091016;28;41775;-75
2022/07/08 07:16:51;;;;;;;1.77;0.90;;;;;;;21.75;43.97;100224.97;5094095;28;43990;-79
2022/07/08 07:19:19;;;;;;;1.70;0.77;;;;;;;21.83;43.00;100238.63;5092697;28;40796;-75
2022/07/08 07:21:49;;;;;;;1.40;0.80;;;;;;;21.90;43.51;100232.69;5091063;28;39995;-73
2022/07/08 07:24:16;;;;;;;2.37;0.90;;;;;;;21.98;43.50;100235.56;5093299;28;41935;-79
2022/07/08 07:26:44;;;;;;;1.67;0.87;;;;;;;22.04;43.46;100240.44;5086910;28;42716;-77
2022/07/08 07:29:12;;;;;;;1.90;1.00;;;;;;;22.12;43.46;100237.94;5092673;28;42988;-81
2022/07/08 07:31:40;;;;;;;1.37;0.77;;;;;;;22.18;42.68;100232.00;5074978;28;40397;-78
2022/07/08 07:34:08;;;;;;;1.70;0.80;;;;;;;22.39;42.33;100243.56;5075659;28;40701;-76
2022/07/08 07:36:36;;;;;;;2.77;1.17;;;;;;;22.37;42.54;100244.72;5093069;28;42809;-77
2022/07/08 07:39:06;;;;;;;3.27;0.80;;;;;;;22.49;42.37;100247.19;5092457;28;42819;-82
2022/07/08 07:41:34;;;;;;;2.33;0.73;;;;;;;22.67;42.52;100250.03;5074475;28;39889;-76
2022/07/08 07:44:02;;;;;;;1.10;1.00;;;;;;;22.84;42.44;100253.94;5075083;28;42154;-76
2022/07/08 07:46:30;;;;;;;2.80;1.30;;;;;;;22.99;42.27;100255.25;5091350;28;41533;-75
2022/07/08 07:48:58;;;;;;;1.17;0.60;;;;;;;23.17;41.43;100250.84;5075251;28;41553;-76
2022/07/08 07:51:25;;;;;;;3.10;0.83;;;;;;;23.24;40.31;100260.06;5091162;28;41164;-77
2022/07/08 07:53:53;;;;;;;2.17;1.00;;;;;;;23.21;40.81;100254.97;5091532;28;41798;-77
2022/07/08 07:56:24;;;;;;;3.63;1.00;;;;;;;23.29;40.83;100247.00;5090610;28;43548;-74
2022/07/08 07:58:52;;;;;;;1.20;0.77;;;;;;;23.51;40.74;100261.22;5088522;28;42195;-75
2022/07/08 08:01:20;;;;;;;1.37;0.70;;;;;;;23.68;40.25;100268.63;5091598;28;39957;-76
2022/07/08 08:03:47;;;;;;;1.00;0.60;;;;;;;23.87;40.83;100262.28;5091261;28;42527;-77
2022/07/08 08:06:15;;;;;;;1.10;0.80;;;;;;;24.00;39.71;100263.69;5073813;28;41625;-77
2022/07/08 08:08:43;;;;;;;1.53;0.70;;;;;;;24.12;39.07;100271.63;5074516;28;40896;-76
2022/07/08 08:11:10;;;;;;;2.77;1.00;;;;;;;24.28;38.65;100283.56;5090414;28;41350;-76
2022/07/08 08:13:39;;;;;;;1.50;0.77;;;;;;;24.45;39.25;100278.38;5074269;28;41165;-75
2022/07/08 08:16:07;;;;;;;1.33;0.87;;;;;;;24.54;38.36;100283.75;5091590;28;42596;-76
2022/07/08 08:18:35;;;;;;;1.63;0.60;;;;;;;24.73;38.16;100288.19;5092587;28;42326;-78
2022/07/08 08:21:03;;;;;;;2.53;0.80;;;;;;;24.91;38.76;100293.66;5092670;28;40921;-79
2022/07/08 08:23:31;;;;;;;3.30;0.73;;;;;;;24.95;38.98;100271.56;5075248;28;41685;-80
2022/07/08 08:25:58;;;;;;;2.00;0.87;;;;;;;25.15;37.54;100306.63;5090962;28;42718;-77
2022/07/08 08:28:26;;;;;;;1.67;0.90;;;;;;;25.17;37.90;100302.78;5074102;28;42985;-78
2022/07/08 08:30:55;;;;;;;2.47;0.97;;;;;;;25.26;37.89;100301.84;5073771;28;39659;-81
2022/07/08 08:33:23;;;;;;;1.63;0.70;;;;;;;25.26;37.58;100298.28;5091530;28;41780;-83
2022/07/08 08:35:51;;;;;;;4.07;1.07;;;;;;;25.45;37.43;100310.84;5073937;28;42079;-79
2022/07/08 08:38:18;;;;;;;1.87;0.77;;;;;;;25.46;37.53;100278.13;5091936;28;41936;-78
2022/07/08 08:40:47;;;;;;;2.33;0.83;;;;;;;25.77;37.00;100308.41;5073167;28;40030;-78
2022/07/08 08:43:15;;;;;;;1.10;0.80;;;;;;;25.99;36.57;100310.63;5091319;28;40760;-79
2022/07/08 08:45:44;;;;;;;1.07;0.87;;;;;;;26.14;35.72;100297.31;5090765;28;44328;-80
2022/07/08 08:48:14;;;;;;;2.17;0.87;;;;;;;26.39;35.32;100298.31;5091084;28;41228;-77
2022/07/08 08:50:54;;;;;;;1.10;0.77;;;;;;;26.64;34.87;100316.44;5090455;28;40776;-78
2022/07/08 08:53:27;;;;;;;2.93;1.20;;;;;;;26.66;35.10;100303.56;5089177;28;41540;-82
2022/07/08 08:55:56;;;;;;;1.67;0.50;;;;;;;26.76;34.39;100309.69;5090663;28;42955;-78
2022/07/08 08:58:25;;;;;;;2.13;0.93;;;;;;;26.87;34.57;100316.69;5091213;28;43897;-83
2022/07/08 09:00:53;;;;;;;1.20;0.57;;;;;;;26.86;35.08;100314.16;5073645;28;39037;-82
2022/07/08 09:03:22;;;;;;;1.23;0.60;;;;;;;26.90;32.87;100326.41;5091324;28;41998;-81
2022/07/08 09:05:50;;;;;;;1.50;0.80;;;;;;;26.96;33.09;100331.19;5090779;28;42799;-79
2022/07/08 09:08:18;;;;;;;1.67;0.70;;;;;;;27.19;33.10;100332.31;5074176;28;40984;-79
2022/07/08 09:10:45;;;;;;;1.60;0.60;;;;;;;28.53;30.94;100322.75;5090111;28;40089;-79
2022/07/08 09:13:15;;;;;;;0.90;0.57;;;;;;;30.79;29.12;100341.16;5088147;28;41566;-77
2022/07/08 09:15:45;;;;;;;3.90;1.20;;;;;;;32.37;27.13;100333.78;5072852;28;43086;-77
2022/07/08 09:18:14;;;;;;;2.00;0.60;;;;;;;32.72;26.20;100348.34;5092102;28;42931;-77
2022/07/08 09:20:45;;;;;;;1.27;0.60;;;;;;;32.84;26.51;100338.50;5072778;28;41070;-79
2022/07/08 09:23:14;;;;;;;1.53;0.60;;;;;;;33.51;24.64;100348.66;5073900;28;42013;-76
2022/07/08 09:25:43;;;;;;;2.13;0.77;;;;;;;34.16;24.05;100342.38;5089087;28;42945;-76
2022/07/08 09:28:10;;;;;;;0.60;0.50;;;;;;;34.37;23.38;100332.25;5073409;28;41233;-77
2022/07/08 09:30:39;;;;;;;3.53;0.60;;;;;;;33.98;22.95;100335.84;5089157;28;39978;-78
2022/07/08 09:33:06;;;;;;;1.60;0.53;;;;;;;33.58;24.17;100346.78;5089926;28;41028;-78
2022/07/08 09:35:36;;;;;;;0.97;0.67;;;;;;;33.27;24.52;100343.72;5089241;28;41702;-80
2022/07/08 09:38:07;;;;;;;2.27;0.50;;;;;;;33.41;24.78;100348.22;5090520;28;42197;-77
2022/07/08 09:40:36;;;;;;;1.10;0.70;;;;;;;33.72;25.06;100334.75;5089724;28;40789;-76
2022/07/08 09:43:12;;;;;;;0.93;0.70;;;;;;;34.09;23.90;100337.94;5073280;28;41904;-78
2022/07/08 09:45:40;;;;;;;1.97;0.70;;;;;;;32.88;24.49;100334.28;5088725;28;42499;-76
2022/07/08 09:48:10;;;;;;;1.20;0.60;;;;;;;31.88;26.22;100322.81;5090220;28;42168;-79
2022/07/08 09:50:41;;;;;;;0.93;0.43;;;;;;;31.00;26.66;100315.75;5072525;28;39858;-80
2022/07/08 09:53:19;;;;;;;1.27;0.70;;;;;;;31.17;26.90;100313.66;5090184;28;42115;-79
2022/07/08 09:55:51;;;;;;;1.60;0.80;;;;;;;31.14;26.21;100319.53;5089128;28;42946;-74
2022/07/08 09:58:21;;;;;;;3.30;0.80;;;;;;;30.18;27.26;100310.38;5089216;28;42323;-75
2022/07/08 10:00:51;;;;;;;2.00;0.80;;;;;;;29.57;28.56;100317.75;5072039;28;38892;-75
2022/07/08 10:03:21;;;;;;;1.93;1.10;;;;;;;29.23;28.60;100309.13;5089107;28;42954;-77
2022/07/08 10:05:49;;;;;;;1.00;0.60;;;;;;;29.35;28.67;100317.72;5088659;28;41814;-75
2022/07/08 10:08:19;;;;;;;2.33;0.90;;;;;;;30.08;28.67;100298.88;5088858;28;43029;-75
2022/07/08 10:10:49;;;;;;;2.43;0.80;;;;;;;30.57;27.33;100325.72;5089800;28;40930;-76
2022/07/08 10:13:20;;;;;;;1.83;0.60;;;;;;;30.52;27.93;100330.88;5089557;28;41085;-81
2022/07/08 10:15:49;;;;;;;1.60;0.77;;;;;;;30.34;27.30;100332.09;5088556;28;42590;-73
2022/07/08 10:18:21;;;;;;;1.03;0.57;;;;;;;30.33;27.71;100308.53;5090856;28;42030;-74
2022/07/08 10:20:53;;;;;;;1.07;0.50;;;;;;;30.13;28.29;100306.53;5088923;28;40177;-75
2022/07/08 10:23:28;;;;;;;0.83;0.53;;;;;;;30.08;28.49;100304.34;5074086;28;43267;-74
2022/07/08 10:25:58;;;;;;;0.97;0.70;;;;;;;30.00;28.42;100318.09;5091740;28;42762;-80
2022/07/08 10:28:35;;;;;;;0.87;0.57;;;;;;;30.34;27.80;100298.44;5093588;28;42531;-78
2022/07/08 10:31:03;;;;;;;1.13;0.70;;;;;;;30.40;28.20;100313.25;5092642;28;40685;-82
2022/07/08 10:33:36;;;;;;;1.67;0.80;;;;;;;30.12;27.82;100304.84;5093317;28;41888;-78
2022/07/08 10:36:09;;;;;;;1.40;0.60;;;;;;;29.85;28.20;100317.19;5092807;28;43074;-78
2022/07/08 10:38:40;;;;;;;2.17;0.90;;;;;;;29.45;29.25;100313.75;5076530;28;41249;-78
2022/07/08 10:41:09;;;;;;;1.40;0.73;;;;;;;29.34;29.63;100305.13;5075805;28;40396;-78
2022/07/08 10:43:37;;;;;;;1.77;0.77;;;;;;;29.26;29.42;100308.75;5093433;28;42510;-78
2022/07/08 10:46:12;;;;;;;0.77;0.50;;;;;;;29.16;29.48;100308.16;5076011;28;41779;-84
2022/07/08 10:48:56;;;;;;;2.23;0.50;;;;;;;29.00;29.01;100309.09;5076799;28;41346;-78
2022/07/08 10:52:03;;;;;;;1.37;0.60;;;;;;;28.93;29.42;100298.03;5093447;28;40888;-82
2022/07/08 10:54:36;;;;;;;0.80;0.60;;;;;;;28.86;29.52;100280.69;5090533;28;42188;-83
2022/07/08 10:57:10;;;;;;;1.23;0.60;;;;;;;28.90;29.92;100303.00;5089879;28;42656;-77
2022/07/08 10:59:38;;;;;;;2.33;0.97;;;;;;;28.89;30.21;100307.63;5091050;28;42061;-77
2022/07/08 11:02:09;;;;;;;0.93;0.80;;;;;;;28.89;29.97;100304.88;5092337;28;41702;-76
2022/07/08 11:04:46;;;;;;;1.10;0.63;;;;;;;28.78;30.56;100293.50;5091131;28;42740;-78
2022/07/08 11:07:28;;;;;;;1.80;0.73;;;;;;;28.70;29.76;100297.09;5093040;28;42561;-79
2022/07/08 11:10:02;;;;;;;1.33;0.60;;;;;;;28.52;30.30;100293.78;5090659;28;42359;-81
2022/07/08 11:12:32;;;;;;;1.03;0.67;;;;;;;28.46;30.29;100286.28;5075225;28;40298;-80
2022/07/08 11:15:02;;;;;;;0.93;0.47;;;;;;;28.70;30.87;100291.66;5094210;28;42729;-78
2022/07/08 11:17:31;;;;;;;1.27;0.57;;;;;;;29.41;29.34;100292.50;5093114;28;42469;-77
2022/07/08 11:20:01;;;;;;;2.07;0.60;;;;;;;29.78;29.25;100297.13;5092655;28;41568;-76
2022/07/08 11:22:33;;;;;;;2.00;0.77;;;;;;;29.82;28.84;100293.81;5093878;28;39951;-78
2022/07/08 11:25:02;;;;;;;1.20;0.83;;;;;;;29.93;27.81;100297.97;5092443;28;42544;-78
2022/07/08 11:27:33;;;;;;;1.63;0.70;;;;;;;30.40;27.78;100303.16;5093341;28;42931;-78
2022/07/08 11:30:02;;;;;;;1.87;0.80;;;;;;;30.61;27.67;100299.69;5092785;28;41613;-77
2022/07/08 11:32:30;;;;;;;5.23;1.00;;;;;;;30.75;27.60;100301.56;5092057;28;39223;-81
2022/07/08 11:34:59;;;;;;;1.00;0.60;;;;;;;30.63;27.64;100294.88;5075169;28;40634;-76
2022/07/08 11:37:26;;;;;;;2.90;0.77;;;;;;;30.58;27.91;100303.66;5093405;28;43662;-81
2022/07/08 11:39:54;;;;;;;2.03;0.80;;;;;;;30.47;27.68;100304.09;5092241;28;42192;-76